createdAt,value
2022-11-04T00:03:43.743Z,80.16
2022-11-04T00:08:36.261Z,80.79
2022-11-04T00:13:30.971Z,81.10
2022-11-04T00:18:22.648Z,82.04
2022-11-04T00:23:32.981Z,81.81
2022-11-04T00:28:42.744Z,82.33
2022-11-04T00:33:34.266Z,80.92
2022-11-04T00:38:26.016Z,80.77
2022-11-04T00:43:17.706Z,80.59
2022-11-04T00:48:10.532Z,80.20
2022-11-04T00:53:03.526Z,81.33
2022-11-04T00:57:55.954Z,80.28
2022-11-04T01:02:47.773Z,80.32
2022-11-04T01:07:43.498Z,80.94
2022-11-04T01:12:35.433Z,80.48
2022-11-04T01:17:27.137Z,80.02
2022-11-04T01:22:18.659Z,79.20
2022-11-04T01:27:10.224Z,78.92
2022-11-04T01:32:01.841Z,78.69
2022-11-04T01:36:53.448Z,79.28
2022-11-04T01:41:45.017Z,79.69
2022-11-04T01:46:50.674Z,79.79
2022-11-04T01:51:43.584Z,79.46
2022-11-04T01:56:35.259Z,79.86
2022-11-04T02:01:27.212Z,80.51
2022-11-04T02:06:19.916Z,81.00
2022-11-04T02:11:31.552Z,81.18
2022-11-04T02:16:50.063Z,81.69
2022-11-04T02:22:13.176Z,82.06
2022-11-04T02:27:30.183Z,82.34
2022-11-04T02:32:49.413Z,82.73
2022-11-04T02:37:59.641Z,82.05
2022-11-04T02:43:12.171Z,82.30
2022-11-04T02:48:30.587Z,81.17
2022-11-04T02:53:39.589Z,81.19
2022-11-04T02:58:36.761Z,80.85
2022-11-04T03:03:38.206Z,80.51
2022-11-04T03:08:45.734Z,80.17
2022-11-04T03:14:00.639Z,80.93
2022-11-04T03:19:05.370Z,80.24
2022-11-04T03:23:57.267Z,79.96
2022-11-04T03:29:01.378Z,81.43
2022-11-04T03:33:55.018Z,81.71
2022-11-04T03:38:47.079Z,81.80
2022-11-04T03:43:40.977Z,81.72
2022-11-04T03:48:32.704Z,81.75
2022-11-04T03:53:27.758Z,80.91
2022-11-04T03:58:34.578Z,81.62
2022-11-04T04:04:02.431Z,81.69
2022-11-04T04:08:58.459Z,81.11
2022-11-04T04:14:11.953Z,80.73
2022-11-04T04:19:10.341Z,81.69
2022-11-04T04:24:24.626Z,82.41
2022-11-04T04:29:18.555Z,82.58
2022-11-04T04:34:10.722Z,83.05
2022-11-04T04:39:27.105Z,81.99
2022-11-04T04:44:42.883Z,82.78
2022-11-04T04:49:37.440Z,83.16
2022-11-04T04:54:28.986Z,82.66
2022-11-04T04:59:20.558Z,82.78
2022-11-04T05:04:12.154Z,83.04
2022-11-04T05:09:04.138Z,83.89
2022-11-04T05:13:55.864Z,84.03
2022-11-04T05:18:47.499Z,84.09
2022-11-04T05:23:39.858Z,83.23
2022-11-04T05:28:31.632Z,82.86
2022-11-04T05:33:23.234Z,83.48
2022-11-04T05:38:14.830Z,83.97
2022-11-04T05:43:06.824Z,83.39
2022-11-04T05:48:04.274Z,84.29
2022-11-04T05:53:00.429Z,84.08
2022-11-04T05:57:52.321Z,84.34
2022-11-04T06:02:43.963Z,83.81
2022-11-04T06:07:35.578Z,84.17
2022-11-04T06:12:27.196Z,84.23
2022-11-04T06:17:22.427Z,84.25
2022-11-04T06:22:16.030Z,84.69
2022-11-04T06:27:08.001Z,85.30
2022-11-04T06:31:59.553Z,85.07
2022-11-04T06:36:51.666Z,84.78
2022-11-04T06:41:43.760Z,84.04
2022-11-04T06:46:43.486Z,83.63
2022-11-04T06:51:35.081Z,83.48
2022-11-04T06:56:26.701Z,83.11
2022-11-04T07:01:22.115Z,81.89
2022-11-04T07:06:14.093Z,80.24
2022-11-04T07:11:05.770Z,78.23
2022-11-04T07:15:57.952Z,77.30
2022-11-04T07:20:49.615Z,77.31
2022-11-04T07:25:41.951Z,76.66
2022-11-04T07:30:33.490Z,76.06
2022-11-04T07:35:25.009Z,76.18
2022-11-04T07:40:16.991Z,75.82
2022-11-04T07:45:08.994Z,75.89
2022-11-04T07:50:02.923Z,76.53
2022-11-04T07:54:56.956Z,76.90
2022-11-04T07:59:48.550Z,81.63
2022-11-04T08:04:40.414Z,81.58
2022-11-04T08:09:31.957Z,81.90
2022-11-04T08:14:23.469Z,81.34
2022-11-04T08:19:14.990Z,80.69
2022-11-04T08:24:06.802Z,79.54
2022-11-04T08:28:59.261Z,78.78
2022-11-04T08:33:51.709Z,76.33
2022-11-04T08:38:43.665Z,72.50
2022-11-04T08:43:35.796Z,67.99
2022-11-04T08:48:28.055Z,65.85
2022-11-04T08:53:20.243Z,64.49
2022-11-04T08:58:12.551Z,66.55
2022-11-04T09:03:04.711Z,67.75
2022-11-04T09:07:56.814Z,67.02
2022-11-04T09:12:48.464Z,63.70
2022-11-04T09:17:40.540Z,62.64
2022-11-04T09:22:32.190Z,61.96
2022-11-04T09:27:23.913Z,62.94
2022-11-04T09:32:15.676Z,64.06
2022-11-04T09:37:07.445Z,64.73
2022-11-04T09:42:24.923Z,65.20
2022-11-04T09:47:21.620Z,65.31
2022-11-04T09:52:26.527Z,65.68
2022-11-04T09:57:19.306Z,65.78
2022-11-04T10:02:50.141Z,65.80
2022-11-04T10:08:00.978Z,65.16
2022-11-04T10:13:11.524Z,65.12
2022-11-04T10:18:18.363Z,65.81
2022-11-04T10:23:32.309Z,65.36
2022-11-04T10:28:41.004Z,64.77
2022-11-04T10:33:41.413Z,64.18
2022-11-04T10:38:48.186Z,64.26
2022-11-04T10:43:41.060Z,64.59
2022-11-04T10:48:39.146Z,65.75
2022-11-04T10:53:33.115Z,65.96
2022-11-04T10:58:32.882Z,66.65
2022-11-04T11:03:35.450Z,66.54
2022-11-04T11:08:33.046Z,65.81
2022-11-04T11:13:34.875Z,65.08
2022-11-04T11:18:28.490Z,63.27
2022-11-04T11:23:33.964Z,61.85
2022-11-04T11:28:26.949Z,60.49
2022-11-04T11:33:27.916Z,60.09
2022-11-04T11:38:25.577Z,59.53
2022-11-04T11:43:27.047Z,57.68
2022-11-04T11:48:29.381Z,56.83
2022-11-04T11:53:24.253Z,55.30
2022-11-04T12:09:18.385Z,55.35
2022-11-04T12:14:36.679Z,56.88
2022-11-04T12:19:41.146Z,57.71
2022-11-04T12:24:44.316Z,57.53
2022-11-04T12:29:54.472Z,57.94
2022-11-04T12:34:50.341Z,57.43
2022-11-04T12:40:09.565Z,57.52
2022-11-04T12:45:10.067Z,57.93
2022-11-04T12:50:23.297Z,58.54
2022-11-04T12:55:45.596Z,58.74
2022-11-04T13:00:38.760Z,59.91
2022-11-04T13:05:52.483Z,60.88
2022-11-04T13:10:59.511Z,60.85
2022-11-04T13:15:58.097Z,60.83
2022-11-04T13:21:04.653Z,59.96
2022-11-04T13:25:58.425Z,59.46
2022-11-04T13:30:59.077Z,57.46
2022-11-04T13:35:56.551Z,57.51
2022-11-04T13:41:22.070Z,57.00
2022-11-04T13:46:23.763Z,56.54
2022-11-04T13:51:15.475Z,57.50
2022-11-04T13:56:31.637Z,57.94
2022-11-04T14:01:19.491Z,57.32
2022-11-04T14:06:11.166Z,57.32
2022-11-04T14:11:07.971Z,58.53
2022-11-04T14:16:29.041Z,59.41
2022-11-04T14:21:23.325Z,62.09
2022-11-04T14:26:20.689Z,63.08
2022-11-04T14:31:17.722Z,61.30
2022-11-04T14:36:21.563Z,61.51
2022-11-04T14:41:39.572Z,61.97
2022-11-04T14:46:40.362Z,62.81
2022-11-04T14:51:40.139Z,63.74
2022-11-04T14:56:31.771Z,64.25
2022-11-04T15:01:26.536Z,64.76
2022-11-04T15:06:40.426Z,65.61
2022-11-04T15:11:58.707Z,65.59
2022-11-04T15:16:55.181Z,67.44
2022-11-04T15:21:49.515Z,68.43
2022-11-04T15:26:41.150Z,70.19
2022-11-04T15:31:34.965Z,70.95
2022-11-04T15:36:33.439Z,71.69
2022-11-04T15:41:45.759Z,71.69
2022-11-04T15:46:37.326Z,72.26
2022-11-04T15:51:34.602Z,73.29
2022-11-04T15:56:32.384Z,73.61
2022-11-04T16:01:24.755Z,73.59
2022-11-04T16:06:16.993Z,73.86
2022-11-04T16:11:18.046Z,73.72
2022-11-04T16:16:23.226Z,74.54
2022-11-04T16:21:22.106Z,74.95
2022-11-04T16:26:14.139Z,73.79
2022-11-04T16:31:08.507Z,74.17
2022-11-04T16:36:00.196Z,74.62
2022-11-04T16:40:51.853Z,75.66
2022-11-04T16:45:52.418Z,76.25
2022-11-04T16:50:46.614Z,77.54
2022-11-04T16:55:42.950Z,78.10
2022-11-04T17:00:34.621Z,77.64
2022-11-04T17:05:26.150Z,78.00
2022-11-04T17:10:22.067Z,78.60
2022-11-04T17:15:15.132Z,78.53
2022-11-04T17:20:07.655Z,79.04
2022-11-04T17:24:59.180Z,79.34
2022-11-04T17:29:50.780Z,81.02
2022-11-04T17:34:43.193Z,81.22
2022-11-04T17:39:34.865Z,80.46
2022-11-04T17:44:26.456Z,79.60
2022-11-04T17:49:21.163Z,78.99
2022-11-04T17:54:13.373Z,78.39
2022-11-04T17:59:05.283Z,77.84
2022-11-04T18:03:57.982Z,78.02
2022-11-04T18:08:52.842Z,78.47
2022-11-04T18:13:44.398Z,78.85
2022-11-04T18:18:35.910Z,77.93
2022-11-04T18:23:29.295Z,77.75
2022-11-04T18:28:20.893Z,76.82
2022-11-04T18:33:12.824Z,76.63
2022-11-04T18:38:04.492Z,76.66
2022-11-04T18:42:56.417Z,76.77
2022-11-04T18:47:48.733Z,77.47
2022-11-04T18:52:40.998Z,77.86
2022-11-04T18:57:32.601Z,78.36
2022-11-04T19:02:24.411Z,78.44
2022-11-04T19:07:16.120Z,78.24
2022-11-04T19:12:26.691Z,78.09
2022-11-04T19:17:18.618Z,77.94
2022-11-04T19:22:10.951Z,78.09
2022-11-04T19:27:02.593Z,78.23
2022-11-04T19:31:54.237Z,77.88
2022-11-04T19:36:45.860Z,78.36
2022-11-04T19:41:56.477Z,77.98
2022-11-04T19:46:49.185Z,78.61
2022-11-04T19:51:41.247Z,78.81
2022-11-04T19:56:33.776Z,79.09
2022-11-04T20:01:25.592Z,79.53
2022-11-04T20:06:18.393Z,79.71
2022-11-04T20:11:11.024Z,79.43
2022-11-04T20:16:14.250Z,79.60
2022-11-04T20:21:06.455Z,79.82
2022-11-04T20:26:06.524Z,79.82
2022-11-04T20:30:58.153Z,79.99
2022-11-04T20:35:49.917Z,79.59
2022-11-04T20:40:41.535Z,79.71
2022-11-04T20:45:33.148Z,79.73
2022-11-04T20:50:24.761Z,79.92
2022-11-04T20:55:16.398Z,79.78
2022-11-04T21:00:08.930Z,79.67
2022-11-04T21:05:00.560Z,79.60
2022-11-04T21:09:52.224Z,79.67
2022-11-04T21:14:43.780Z,79.53
2022-11-04T21:19:35.359Z,79.64
2022-11-04T21:24:26.996Z,79.50
2022-11-04T21:29:20.359Z,78.82
2022-11-04T21:34:12.266Z,78.67
2022-11-04T21:39:04.435Z,78.40
2022-11-04T21:44:01.435Z,78.05
2022-11-04T21:48:53.143Z,77.55
2022-11-04T21:53:45.248Z,77.03
2022-11-04T21:58:37.898Z,76.27
2022-11-04T22:03:29.561Z,76.54
2022-11-04T22:08:21.430Z,76.49
2022-11-04T22:13:13.243Z,75.52
2022-11-04T22:18:06.107Z,75.25
2022-11-04T22:22:57.978Z,75.57
2022-11-04T22:27:49.679Z,75.59
2022-11-04T22:32:41.444Z,76.26
2022-11-04T22:37:33.372Z,76.56
